sensor_id;sensor_type;location;lat;lon;timestamp;temperature;humidity
12815;DHT22;6472;52.328;13.070;2023-05-23T00:00:05;13.50;99.90
12815;DHT22;6472;52.328;13.070;2023-05-23T00:02:34;13.50;99.90
12815;DHT22;6472;52.328;13.070;2023-05-23T00:05:04;13.50;99.90
12815;DHT22;6472;52.328;13.070;2023-05-23T00:07:32;13.50;99.90
12815;DHT22;6472;52.328;13.070;2023-05-23T00:10:02;13.50;99.90
12815;DHT22;6472;52.328;13.070;2023-05-23T00:12:30;13.60;99.90
12815;DHT22;6472;52.328;13.070;2023-05-23T00:14:59;13.70;99.90
12815;DHT22;6472;52.328;13.070;2023-05-23T00:17:28;13.70;99.90
12815;DHT22;6472;52.328;13.070;2023-05-23T00:19:56;13.70;99.90
12815;DHT22;6472;52.328;13.070;2023-05-23T00:22:24;13.70;99.90
12815;DHT22;6472;52.328;13.070;2023-05-23T00:24:52;13.70;99.90
12815;DHT22;6472;52.328;13.070;2023-05-23T00:27:21;13.70;99.90
12815;DHT22;6472;52.328;13.070;2023-05-23T00:29:49;13.70;99.90
12815;DHT22;6472;52.328;13.070;2023-05-23T00:32:17;13.70;99.90
12815;DHT22;6472;52.328;13.070;2023-05-23T00:34:45;13.80;99.90
12815;DHT22;6472;52.328;13.070;2023-05-23T00:37:14;13.70;99.90
12815;DHT22;6472;52.328;13.070;2023-05-23T00:39:42;13.70;99.90
12815;DHT22;6472;52.328;13.070;2023-05-23T00:42:10;13.60;99.90
12815;DHT22;6472;52.328;13.070;2023-05-23T00:44:39;13.70;99.90
12815;DHT22;6472;52.328;13.070;2023-05-23T00:47:07;13.60;99.90
12815;DHT22;6472;52.328;13.070;2023-05-23T00:49:36;13.50;99.90
12815;DHT22;6472;52.328;13.070;2023-05-23T00:52:05;13.60;99.90
12815;DHT22;6472;52.328;13.070;2023-05-23T00:54:33;13.50;99.90
12815;DHT22;6472;52.328;13.070;2023-05-23T00:57:03;13.40;99.90
12815;DHT22;6472;52.328;13.070;2023-05-23T00:59:32;13.40;99.90
12815;DHT22;6472;52.328;13.070;2023-05-23T01:02:04;13.30;99.90
12815;DHT22;6472;52.328;13.070;2023-05-23T01:04:33;13.30;99.90
12815;DHT22;6472;52.328;13.070;2023-05-23T01:07:01;13.30;99.90
12815;DHT22;6472;52.328;13.070;2023-05-23T01:09:30;13.20;99.90
12815;DHT22;6472;52.328;13.070;2023-05-23T01:12:09;13.10;99.90
12815;DHT22;6472;52.328;13.070;2023-05-23T01:14:46;13.10;99.90
12815;DHT22;6472;52.328;13.070;2023-05-23T01:17:20;13.00;99.90
12815;DHT22;6472;52.328;13.070;2023-05-23T01:19:58;13.00;99.90
12815;DHT22;6472;52.328;13.070;2023-05-23T01:22:58;13.00;99.90
12815;DHT22;6472;52.328;13.070;2023-05-23T01:25:46;13.00;99.90
12815;DHT22;6472;52.328;13.070;2023-05-23T01:28:19;13.20;99.90
12815;DHT22;6472;52.328;13.070;2023-05-23T01:30:51;13.50;99.90
12815;DHT22;6472;52.328;13.070;2023-05-23T01:33:19;13.60;99.90
12815;DHT22;6472;52.328;13.070;2023-05-23T01:35:50;13.80;99.90
12815;DHT22;6472;52.328;13.070;2023-05-23T01:38:18;13.90;99.90
12815;DHT22;6472;52.328;13.070;2023-05-23T01:40:46;13.90;99.90
12815;DHT22;6472;52.328;13.070;2023-05-23T01:43:14;13.90;99.90
12815;DHT22;6472;52.328;13.070;2023-05-23T01:45:44;13.90;99.90
12815;DHT22;6472;52.328;13.070;2023-05-23T01:48:12;13.90;99.90
12815;DHT22;6472;52.328;13.070;2023-05-23T01:50:43;13.90;99.90
12815;DHT22;6472;52.328;13.070;2023-05-23T01:53:13;13.90;99.90
12815;DHT22;6472;52.328;13.070;2023-05-23T01:55:41;13.90;99.90
12815;DHT22;6472;52.328;13.070;2023-05-23T01:58:10;13.90;99.90
12815;DHT22;6472;52.328;13.070;2023-05-23T02:00:39;14.00;99.90
12815;DHT22;6472;52.328;13.070;2023-05-23T02:03:08;14.00;99.90
12815;DHT22;6472;52.328;13.070;2023-05-23T02:05:37;13.90;99.90
12815;DHT22;6472;52.328;13.070;2023-05-23T02:08:06;13.90;99.90
12815;DHT22;6472;52.328;13.070;2023-05-23T02:10:34;13.90;99.90
12815;DHT22;6472;52.328;13.070;2023-05-23T02:13:02;13.90;99.90
12815;DHT22;6472;52.328;13.070;2023-05-23T02:15:30;13.90;99.90
12815;DHT22;6472;52.328;13.070;2023-05-23T02:17:58;13.90;99.90
12815;DHT22;6472;52.328;13.070;2023-05-23T02:20:29;13.90;99.90
12815;DHT22;6472;52.328;13.070;2023-05-23T02:22:57;13.90;99.90
12815;DHT22;6472;52.328;13.070;2023-05-23T02:25:25;13.90;99.90
12815;DHT22;6472;52.328;13.070;2023-05-23T02:27:53;13.90;99.90
12815;DHT22;6472;52.328;13.070;2023-05-23T02:30:21;13.90;99.90
12815;DHT22;6472;52.328;13.070;2023-05-23T02:32:49;13.90;99.90
12815;DHT22;6472;52.328;13.070;2023-05-23T02:35:17;13.90;99.90
12815;DHT22;6472;52.328;13.070;2023-05-23T02:37:46;13.90;99.90
12815;DHT22;6472;52.328;13.070;2023-05-23T02:40:15;13.90;99.90
12815;DHT22;6472;52.328;13.070;2023-05-23T02:42:42;13.80;99.90
12815;DHT22;6472;52.328;13.070;2023-05-23T02:45:11;13.90;99.90
12815;DHT22;6472;52.328;13.070;2023-05-23T02:47:39;13.80;99.90
12815;DHT22;6472;52.328;13.070;2023-05-23T02:50:07;13.80;99.90
12815;DHT22;6472;52.328;13.070;2023-05-23T02:52:35;13.80;99.90
12815;DHT22;6472;52.328;13.070;2023-05-23T02:55:06;13.80;99.90
12815;DHT22;6472;52.328;13.070;2023-05-23T02:57:34;13.80;99.90
12815;DHT22;6472;52.328;13.070;2023-05-23T03:00:02;13.80;99.90
12815;DHT22;6472;52.328;13.070;2023-05-23T03:02:31;13.80;99.90
12815;DHT22;6472;52.328;13.070;2023-05-23T03:04:59;13.80;99.90
12815;DHT22;6472;52.328;13.070;2023-05-23T03:07:27;13.80;99.90
12815;DHT22;6472;52.328;13.070;2023-05-23T03:09:55;13.80;99.90
12815;DHT22;6472;52.328;13.070;2023-05-23T03:12:25;13.80;99.90
12815;DHT22;6472;52.328;13.070;2023-05-23T03:14:53;13.70;99.90
12815;DHT22;6472;52.328;13.070;2023-05-23T03:17:23;13.70;99.90
12815;DHT22;6472;52.328;13.070;2023-05-23T03:19:51;13.70;99.90
12815;DHT22;6472;52.328;13.070;2023-05-23T03:22:19;13.70;99.90
12815;DHT22;6472;52.328;13.070;2023-05-23T03:24:48;13.70;99.90
12815;DHT22;6472;52.328;13.070;2023-05-23T03:27:16;13.70;99.90
12815;DHT22;6472;52.328;13.070;2023-05-23T03:29:45;13.70;99.90
12815;DHT22;6472;52.328;13.070;2023-05-23T03:32:14;13.80;99.90
12815;DHT22;6472;52.328;13.070;2023-05-23T03:34:41;13.80;99.90
12815;DHT22;6472;52.328;13.070;2023-05-23T03:37:09;13.80;99.90
12815;DHT22;6472;52.328;13.070;2023-05-23T03:39:37;13.90;99.90
12815;DHT22;6472;52.328;13.070;2023-05-23T03:42:06;14.00;99.90
12815;DHT22;6472;52.328;13.070;2023-05-23T03:44:34;14.00;99.90
12815;DHT22;6472;52.328;13.070;2023-05-23T03:47:04;14.00;99.90
12815;DHT22;6472;52.328;13.070;2023-05-23T03:49:32;14.10;99.90
12815;DHT22;6472;52.328;13.070;2023-05-23T03:52:00;14.10;99.90
12815;DHT22;6472;52.328;13.070;2023-05-23T03:54:29;14.10;99.90
12815;DHT22;6472;52.328;13.070;2023-05-23T03:56:57;14.10;99.90
12815;DHT22;6472;52.328;13.070;2023-05-23T03:59:25;14.20;99.90
12815;DHT22;6472;52.328;13.070;2023-05-23T04:01:53;14.20;99.90
12815;DHT22;6472;52.328;13.070;2023-05-23T04:04:23;14.20;99.90
12815;DHT22;6472;52.328;13.070;2023-05-23T04:06:52;14.20;99.90
12815;DHT22;6472;52.328;13.070;2023-05-23T04:09:20;14.20;99.90
12815;DHT22;6472;52.328;13.070;2023-05-23T04:11:48;14.20;99.90
12815;DHT22;6472;52.328;13.070;2023-05-23T04:14:16;14.20;99.90
12815;DHT22;6472;52.328;13.070;2023-05-23T04:16:45;14.20;99.90
12815;DHT22;6472;52.328;13.070;2023-05-23T04:19:13;14.20;99.90
12815;DHT22;6472;52.328;13.070;2023-05-23T04:21:44;14.20;99.90
12815;DHT22;6472;52.328;13.070;2023-05-23T04:24:12;14.20;99.90
12815;DHT22;6472;52.328;13.070;2023-05-23T04:26:40;14.20;99.90
12815;DHT22;6472;52.328;13.070;2023-05-23T04:29:08;14.30;99.90
12815;DHT22;6472;52.328;13.070;2023-05-23T04:31:37;14.20;99.90
12815;DHT22;6472;52.328;13.070;2023-05-23T04:34:06;14.20;99.90
12815;DHT22;6472;52.328;13.070;2023-05-23T04:36:34;14.20;99.90
12815;DHT22;6472;52.328;13.070;2023-05-23T04:39:05;14.20;99.90
12815;DHT22;6472;52.328;13.070;2023-05-23T04:41:33;14.20;99.90
12815;DHT22;6472;52.328;13.070;2023-05-23T04:44:02;14.20;99.90
12815;DHT22;6472;52.328;13.070;2023-05-23T04:46:31;14.30;99.90
12815;DHT22;6472;52.328;13.070;2023-05-23T04:48:59;14.20;99.90
12815;DHT22;6472;52.328;13.070;2023-05-23T04:51:27;14.30;99.90
12815;DHT22;6472;52.328;13.070;2023-05-23T04:53:55;14.30;99.90
12815;DHT22;6472;52.328;13.070;2023-05-23T04:56:25;14.30;99.90
12815;DHT22;6472;52.328;13.070;2023-05-23T04:58:54;14.30;99.90
12815;DHT22;6472;52.328;13.070;2023-05-23T05:01:22;14.30;99.90
12815;DHT22;6472;52.328;13.070;2023-05-23T05:03:51;14.30;99.90
12815;DHT22;6472;52.328;13.070;2023-05-23T05:06:19;14.30;99.90
12815;DHT22;6472;52.328;13.070;2023-05-23T05:08:47;14.40;99.90
12815;DHT22;6472;52.328;13.070;2023-05-23T05:11:15;14.30;99.90
12815;DHT22;6472;52.328;13.070;2023-05-23T05:13:45;14.30;99.90
12815;DHT22;6472;52.328;13.070;2023-05-23T05:16:13;14.30;99.90
12815;DHT22;6472;52.328;13.070;2023-05-23T05:18:41;14.40;99.90
12815;DHT22;6472;52.328;13.070;2023-05-23T05:21:09;14.30;99.90
12815;DHT22;6472;52.328;13.070;2023-05-23T05:23:37;14.40;99.90
12815;DHT22;6472;52.328;13.070;2023-05-23T05:26:05;14.40;99.90
12815;DHT22;6472;52.328;13.070;2023-05-23T05:28:33;14.40;99.90
12815;DHT22;6472;52.328;13.070;2023-05-23T05:31:03;14.50;99.90
12815;DHT22;6472;52.328;13.070;2023-05-23T05:33:31;14.50;99.90
12815;DHT22;6472;52.328;13.070;2023-05-23T05:36:02;14.50;99.90
12815;DHT22;6472;52.328;13.070;2023-05-23T05:38:30;14.60;99.90
12815;DHT22;6472;52.328;13.070;2023-05-23T05:40:58;14.60;99.90
12815;DHT22;6472;52.328;13.070;2023-05-23T05:43:26;14.70;99.90
12815;DHT22;6472;52.328;13.070;2023-05-23T05:45:54;14.70;99.90
12815;DHT22;6472;52.328;13.070;2023-05-23T05:48:23;14.80;99.90
12815;DHT22;6472;52.328;13.070;2023-05-23T05:50:51;14.80;99.90
12815;DHT22;6472;52.328;13.070;2023-05-23T05:53:19;14.80;99.90
12815;DHT22;6472;52.328;13.070;2023-05-23T05:55:47;14.80;99.90
12815;DHT22;6472;52.328;13.070;2023-05-23T05:58:16;14.80;99.90
12815;DHT22;6472;52.328;13.070;2023-05-23T06:00:44;14.90;99.90
12815;DHT22;6472;52.328;13.070;2023-05-23T06:03:12;15.10;99.90
12815;DHT22;6472;52.328;13.070;2023-05-23T06:05:42;15.20;99.90
12815;DHT22;6472;52.328;13.070;2023-05-23T06:08:10;15.40;99.90
12815;DHT22;6472;52.328;13.070;2023-05-23T06:10:38;15.60;99.90
12815;DHT22;6472;52.328;13.070;2023-05-23T06:13:07;15.70;99.90
12815;DHT22;6472;52.328;13.070;2023-05-23T06:15:35;16.00;99.90
12815;DHT22;6472;52.328;13.070;2023-05-23T06:18:03;16.10;99.90
12815;DHT22;6472;52.328;13.070;2023-05-23T06:20:31;16.30;99.90
12815;DHT22;6472;52.328;13.070;2023-05-23T06:23:00;16.40;99.90
12815;DHT22;6472;52.328;13.070;2023-05-23T06:25:31;16.70;99.90
12815;DHT22;6472;52.328;13.070;2023-05-23T06:27:59;16.70;99.90
12815;DHT22;6472;52.328;13.070;2023-05-23T06:30:27;16.80;99.90
12815;DHT22;6472;52.328;13.070;2023-05-23T06:32:56;16.90;99.90
12815;DHT22;6472;52.328;13.070;2023-05-23T06:35:24;17.00;99.90
12815;DHT22;6472;52.328;13.070;2023-05-23T06:37:52;17.10;99.90
12815;DHT22;6472;52.328;13.070;2023-05-23T06:40:21;17.00;99.90
12815;DHT22;6472;52.328;13.070;2023-05-23T06:42:49;17.00;99.90
12815;DHT22;6472;52.328;13.070;2023-05-23T06:45:17;16.80;99.90
12815;DHT22;6472;52.328;13.070;2023-05-23T06:47:45;16.90;99.90
12815;DHT22;6472;52.328;13.070;2023-05-23T06:50:14;16.90;99.90
12815;DHT22;6472;52.328;13.070;2023-05-23T06:52:45;16.70;99.90
12815;DHT22;6472;52.328;13.070;2023-05-23T06:55:13;16.50;99.90
12815;DHT22;6472;52.328;13.070;2023-05-23T06:57:46;16.50;99.90
12815;DHT22;6472;52.328;13.070;2023-05-23T07:00:18;16.60;99.90
12815;DHT22;6472;52.328;13.070;2023-05-23T07:02:46;16.70;99.90
12815;DHT22;6472;52.328;13.070;2023-05-23T07:05:15;16.70;99.90
12815;DHT22;6472;52.328;13.070;2023-05-23T07:07:43;16.70;99.90
12815;DHT22;6472;52.328;13.070;2023-05-23T07:10:11;16.80;99.90
12815;DHT22;6472;52.328;13.070;2023-05-23T07:12:39;16.80;99.90
12815;DHT22;6472;52.328;13.070;2023-05-23T07:15:10;16.80;99.90
12815;DHT22;6472;52.328;13.070;2023-05-23T07:17:38;16.80;99.90
12815;DHT22;6472;52.328;13.070;2023-05-23T07:20:07;16.60;99.90
12815;DHT22;6472;52.328;13.070;2023-05-23T07:22:35;16.60;99.90
12815;DHT22;6472;52.328;13.070;2023-05-23T07:25:04;16.60;99.90
12815;DHT22;6472;52.328;13.070;2023-05-23T07:27:32;16.80;99.90
12815;DHT22;6472;52.328;13.070;2023-05-23T07:30:00;16.80;99.90
12815;DHT22;6472;52.328;13.070;2023-05-23T07:32:30;16.80;99.90
12815;DHT22;6472;52.328;13.070;2023-05-23T07:34:58;16.90;99.90
12815;DHT22;6472;52.328;13.070;2023-05-23T07:37:26;17.10;99.90
12815;DHT22;6472;52.328;13.070;2023-05-23T07:39:54;17.20;99.90
12815;DHT22;6472;52.328;13.070;2023-05-23T07:42:22;17.40;99.90
12815;DHT22;6472;52.328;13.070;2023-05-23T07:44:50;17.40;99.90
12815;DHT22;6472;52.328;13.070;2023-05-23T07:47:18;17.60;99.90
12815;DHT22;6472;52.328;13.070;2023-05-23T07:49:48;17.90;99.90
12815;DHT22;6472;52.328;13.070;2023-05-23T07:52:17;18.10;99.90
12815;DHT22;6472;52.328;13.070;2023-05-23T07:54:45;18.20;99.90
12815;DHT22;6472;52.328;13.070;2023-05-23T07:57:14;18.30;99.90
12815;DHT22;6472;52.328;13.070;2023-05-23T07:59:42;18.20;99.90
12815;DHT22;6472;52.328;13.070;2023-05-23T08:02:10;18.20;99.90
12815;DHT22;6472;52.328;13.070;2023-05-23T08:04:38;18.10;99.90
12815;DHT22;6472;52.328;13.070;2023-05-23T08:07:08;18.10;99.90
12815;DHT22;6472;52.328;13.070;2023-05-23T08:09:37;18.30;99.90
12815;DHT22;6472;52.328;13.070;2023-05-23T08:12:06;18.40;99.90
12815;DHT22;6472;52.328;13.070;2023-05-23T08:14:34;18.50;99.90
12815;DHT22;6472;52.328;13.070;2023-05-23T08:17:16;18.60;99.90
12815;DHT22;6472;52.328;13.070;2023-05-23T08:19:44;19.00;99.90
12815;DHT22;6472;52.328;13.070;2023-05-23T08:22:14;19.20;99.90
12815;DHT22;6472;52.328;13.070;2023-05-23T08:24:42;19.30;99.90
12815;DHT22;6472;52.328;13.070;2023-05-23T08:27:10;19.40;99.90
12815;DHT22;6472;52.328;13.070;2023-05-23T08:29:38;19.40;99.90
12815;DHT22;6472;52.328;13.070;2023-05-23T08:32:07;19.40;99.90
12815;DHT22;6472;52.328;13.070;2023-05-23T08:34:35;19.40;99.90
12815;DHT22;6472;52.328;13.070;2023-05-23T08:37:03;19.20;99.90
12815;DHT22;6472;52.328;13.070;2023-05-23T08:39:32;19.10;99.90
12815;DHT22;6472;52.328;13.070;2023-05-23T08:42:00;19.20;99.90
12815;DHT22;6472;52.328;13.070;2023-05-23T08:44:29;18.90;99.90
12815;DHT22;6472;52.328;13.070;2023-05-23T08:47:00;18.50;99.90
12815;DHT22;6472;52.328;13.070;2023-05-23T08:49:31;18.40;99.90
12815;DHT22;6472;52.328;13.070;2023-05-23T08:52:01;18.40;99.90
12815;DHT22;6472;52.328;13.070;2023-05-23T08:54:30;18.20;99.90
12815;DHT22;6472;52.328;13.070;2023-05-23T08:57:01;18.10;99.90
12815;DHT22;6472;52.328;13.070;2023-05-23T08:59:29;18.10;99.90
12815;DHT22;6472;52.328;13.070;2023-05-23T09:01:59;18.00;99.90
12815;DHT22;6472;52.328;13.070;2023-05-23T09:04:29;18.10;99.90
12815;DHT22;6472;52.328;13.070;2023-05-23T09:06:58;18.20;99.90
12815;DHT22;6472;52.328;13.070;2023-05-23T09:09:27;18.30;99.90
12815;DHT22;6472;52.328;13.070;2023-05-23T09:11:55;18.30;99.90
12815;DHT22;6472;52.328;13.070;2023-05-23T09:14:26;18.50;99.90
12815;DHT22;6472;52.328;13.070;2023-05-23T09:17:00;18.50;99.90
12815;DHT22;6472;52.328;13.070;2023-05-23T09:19:30;18.70;99.90
12815;DHT22;6472;52.328;13.070;2023-05-23T09:22:01;18.80;99.90
12815;DHT22;6472;52.328;13.070;2023-05-23T09:24:33;18.80;99.90
12815;DHT22;6472;52.328;13.070;2023-05-23T09:27:04;18.80;99.90
12815;DHT22;6472;52.328;13.070;2023-05-23T09:29:37;18.90;99.90
12815;DHT22;6472;52.328;13.070;2023-05-23T09:32:13;18.80;99.90
12815;DHT22;6472;52.328;13.070;2023-05-23T09:34:41;18.70;99.90
12815;DHT22;6472;52.328;13.070;2023-05-23T09:37:11;18.20;99.90
12815;DHT22;6472;52.328;13.070;2023-05-23T09:39:45;18.00;99.90
12815;DHT22;6472;52.328;13.070;2023-05-23T09:42:19;17.90;99.90
12815;DHT22;6472;52.328;13.070;2023-05-23T09:44:49;17.80;99.90
12815;DHT22;6472;52.328;13.070;2023-05-23T09:47:17;17.50;99.90
12815;DHT22;6472;52.328;13.070;2023-05-23T09:49:46;17.30;99.90
12815;DHT22;6472;52.328;13.070;2023-05-23T09:52:14;17.10;99.90
12815;DHT22;6472;52.328;13.070;2023-05-23T09:54:42;17.10;99.90
12815;DHT22;6472;52.328;13.070;2023-05-23T09:57:14;17.10;99.90
12815;DHT22;6472;52.328;13.070;2023-05-23T09:59:48;17.00;99.90
12815;DHT22;6472;52.328;13.070;2023-05-23T10:02:44;17.00;99.90
12815;DHT22;6472;52.328;13.070;2023-05-23T10:05:29;17.00;99.90
12815;DHT22;6472;52.328;13.070;2023-05-23T10:08:00;17.10;99.90
12815;DHT22;6472;52.328;13.070;2023-05-23T10:10:30;17.30;99.90
12815;DHT22;6472;52.328;13.070;2023-05-23T10:13:02;17.30;99.90
12815;DHT22;6472;52.328;13.070;2023-05-23T10:15:35;17.40;99.90
12815;DHT22;6472;52.328;13.070;2023-05-23T10:18:11;17.50;99.90
12815;DHT22;6472;52.328;13.070;2023-05-23T10:20:46;17.40;99.90
12815;DHT22;6472;52.328;13.070;2023-05-23T10:23:15;17.40;99.90
12815;DHT22;6472;52.328;13.070;2023-05-23T10:25:44;17.30;99.90
12815;DHT22;6472;52.328;13.070;2023-05-23T10:28:13;17.30;99.90
12815;DHT22;6472;52.328;13.070;2023-05-23T10:30:41;17.20;99.90
12815;DHT22;6472;52.328;13.070;2023-05-23T10:33:11;17.00;99.90
12815;DHT22;6472;52.328;13.070;2023-05-23T10:35:48;16.90;99.90
12815;DHT22;6472;52.328;13.070;2023-05-23T10:38:28;16.90;99.90
12815;DHT22;6472;52.328;13.070;2023-05-23T10:41:01;17.00;99.90
12815;DHT22;6472;52.328;13.070;2023-05-23T10:43:39;16.80;99.90
12815;DHT22;6472;52.328;13.070;2023-05-23T10:46:11;16.80;99.90
12815;DHT22;6472;52.328;13.070;2023-05-23T10:48:42;16.60;99.90
12815;DHT22;6472;52.328;13.070;2023-05-23T10:51:12;16.50;99.90
12815;DHT22;6472;52.328;13.070;2023-05-23T10:53:41;16.50;99.90
12815;DHT22;6472;52.328;13.070;2023-05-23T10:56:17;16.60;99.90
12815;DHT22;6472;52.328;13.070;2023-05-23T10:58:46;16.50;99.90
12815;DHT22;6472;52.328;13.070;2023-05-23T11:01:19;16.80;99.90
12815;DHT22;6472;52.328;13.070;2023-05-23T11:03:52;16.90;99.90
12815;DHT22;6472;52.328;13.070;2023-05-23T11:06:30;17.00;99.90
12815;DHT22;6472;52.328;13.070;2023-05-23T11:09:03;17.10;99.90
12815;DHT22;6472;52.328;13.070;2023-05-23T11:11:59;17.30;99.90
12815;DHT22;6472;52.328;13.070;2023-05-23T11:17:15;17.50;99.90
12815;DHT22;6472;52.328;13.070;2023-05-23T11:20:01;17.70;99.90
12815;DHT22;6472;52.328;13.070;2023-05-23T11:22:31;17.90;99.90
12815;DHT22;6472;52.328;13.070;2023-05-23T11:25:00;18.00;99.90
12815;DHT22;6472;52.328;13.070;2023-05-23T11:27:30;18.10;99.90
12815;DHT22;6472;52.328;13.070;2023-05-23T11:30:02;18.10;99.90
12815;DHT22;6472;52.328;13.070;2023-05-23T11:32:31;18.20;99.90
12815;DHT22;6472;52.328;13.070;2023-05-23T11:35:01;18.20;99.90
12815;DHT22;6472;52.328;13.070;2023-05-23T11:37:31;18.20;99.90
12815;DHT22;6472;52.328;13.070;2023-05-23T11:40:00;18.10;99.90
12815;DHT22;6472;52.328;13.070;2023-05-23T11:42:47;18.00;99.90
12815;DHT22;6472;52.328;13.070;2023-05-23T11:45:15;17.90;99.90
12815;DHT22;6472;52.328;13.070;2023-05-23T11:47:43;17.60;99.90
12815;DHT22;6472;52.328;13.070;2023-05-23T11:50:14;17.40;99.90
12815;DHT22;6472;52.328;13.070;2023-05-23T11:52:42;17.40;99.90
12815;DHT22;6472;52.328;13.070;2023-05-23T11:55:12;17.30;99.90
12815;DHT22;6472;52.328;13.070;2023-05-23T11:57:40;17.30;99.90
12815;DHT22;6472;52.328;13.070;2023-05-23T12:00:09;17.30;99.90
12815;DHT22;6472;52.328;13.070;2023-05-23T12:02:38;17.30;99.90
12815;DHT22;6472;52.328;13.070;2023-05-23T12:05:08;17.20;99.90
12815;DHT22;6472;52.328;13.070;2023-05-23T12:07:40;17.00;99.90
12815;DHT22;6472;52.328;13.070;2023-05-23T12:10:10;16.80;99.90
12815;DHT22;6472;52.328;13.070;2023-05-23T12:12:39;16.80;99.90
12815;DHT22;6472;52.328;13.070;2023-05-23T12:15:08;16.90;99.90
12815;DHT22;6472;52.328;13.070;2023-05-23T12:17:37;16.80;99.90
12815;DHT22;6472;52.328;13.070;2023-05-23T12:20:06;16.80;99.90
12815;DHT22;6472;52.328;13.070;2023-05-23T12:22:34;16.80;99.90
12815;DHT22;6472;52.328;13.070;2023-05-23T12:25:07;16.60;99.90
12815;DHT22;6472;52.328;13.070;2023-05-23T12:27:37;16.50;99.90
12815;DHT22;6472;52.328;13.070;2023-05-23T12:30:06;16.30;99.90
12815;DHT22;6472;52.328;13.070;2023-05-23T12:32:38;16.30;99.90
12815;DHT22;6472;52.328;13.070;2023-05-23T12:35:08;16.30;99.90
12815;DHT22;6472;52.328;13.070;2023-05-23T12:37:38;16.30;99.90
12815;DHT22;6472;52.328;13.070;2023-05-23T12:40:13;16.20;99.90
12815;DHT22;6472;52.328;13.070;2023-05-23T12:42:48;16.20;99.90
12815;DHT22;6472;52.328;13.070;2023-05-23T12:45:17;16.20;99.90
12815;DHT22;6472;52.328;13.070;2023-05-23T12:47:45;16.20;99.90
12815;DHT22;6472;52.328;13.070;2023-05-23T12:50:14;16.20;99.90
12815;DHT22;6472;52.328;13.070;2023-05-23T12:52:42;16.20;99.90
12815;DHT22;6472;52.328;13.070;2023-05-23T12:55:11;16.20;99.90
12815;DHT22;6472;52.328;13.070;2023-05-23T12:57:39;16.20;99.90
12815;DHT22;6472;52.328;13.070;2023-05-23T13:00:08;16.30;99.90
12815;DHT22;6472;52.328;13.070;2023-05-23T13:02:37;16.50;99.90
12815;DHT22;6472;52.328;13.070;2023-05-23T13:05:06;16.60;99.90
12815;DHT22;6472;52.328;13.070;2023-05-23T13:07:35;16.80;99.90
12815;DHT22;6472;52.328;13.070;2023-05-23T13:10:04;17.00;99.90
12815;DHT22;6472;52.328;13.070;2023-05-23T13:12:33;17.10;99.90
12815;DHT22;6472;52.328;13.070;2023-05-23T13:15:01;17.20;99.90
12815;DHT22;6472;52.328;13.070;2023-05-23T13:17:29;17.20;99.90
12815;DHT22;6472;52.328;13.070;2023-05-23T13:19:57;17.20;99.90
12815;DHT22;6472;52.328;13.070;2023-05-23T13:22:25;17.20;99.90
12815;DHT22;6472;52.328;13.070;2023-05-23T13:24:53;17.10;99.90
12815;DHT22;6472;52.328;13.070;2023-05-23T13:27:21;17.10;99.90
12815;DHT22;6472;52.328;13.070;2023-05-23T13:29:51;16.90;99.90
12815;DHT22;6472;52.328;13.070;2023-05-23T13:32:18;16.90;99.90
12815;DHT22;6472;52.328;13.070;2023-05-23T13:34:47;16.90;99.90
12815;DHT22;6472;52.328;13.070;2023-05-23T13:37:14;16.80;99.90
12815;DHT22;6472;52.328;13.070;2023-05-23T13:39:42;16.80;99.90
12815;DHT22;6472;52.328;13.070;2023-05-23T13:42:10;16.60;99.90
12815;DHT22;6472;52.328;13.070;2023-05-23T13:44:39;16.50;99.90
12815;DHT22;6472;52.328;13.070;2023-05-23T13:47:12;16.50;99.90
12815;DHT22;6472;52.328;13.070;2023-05-23T13:49:40;16.50;99.90
12815;DHT22;6472;52.328;13.070;2023-05-23T13:52:08;16.40;99.90
12815;DHT22;6472;52.328;13.070;2023-05-23T13:54:36;16.40;99.90
12815;DHT22;6472;52.328;13.070;2023-05-23T13:57:05;16.40;99.90
12815;DHT22;6472;52.328;13.070;2023-05-23T13:59:33;16.50;99.90
12815;DHT22;6472;52.328;13.070;2023-05-23T14:02:01;16.50;99.90
12815;DHT22;6472;52.328;13.070;2023-05-23T14:04:31;16.40;99.90
12815;DHT22;6472;52.328;13.070;2023-05-23T14:06:59;16.40;99.90
12815;DHT22;6472;52.328;13.070;2023-05-23T14:09:27;16.40;99.90
12815;DHT22;6472;52.328;13.070;2023-05-23T14:11:55;16.50;99.90
12815;DHT22;6472;52.328;13.070;2023-05-23T14:14:23;16.50;99.90
12815;DHT22;6472;52.328;13.070;2023-05-23T14:16:52;16.40;99.90
12815;DHT22;6472;52.328;13.070;2023-05-23T14:19:20;16.30;99.90
12815;DHT22;6472;52.328;13.070;2023-05-23T14:21:50;16.20;99.90
12815;DHT22;6472;52.328;13.070;2023-05-23T14:24:18;16.20;99.90
12815;DHT22;6472;52.328;13.070;2023-05-23T14:26:47;16.20;99.90
12815;DHT22;6472;52.328;13.070;2023-05-23T14:29:15;16.20;99.90
12815;DHT22;6472;52.328;13.070;2023-05-23T14:31:44;16.00;99.90
12815;DHT22;6472;52.328;13.070;2023-05-23T14:34:12;16.00;99.90
12815;DHT22;6472;52.328;13.070;2023-05-23T14:36:40;15.90;99.90
12815;DHT22;6472;52.328;13.070;2023-05-23T14:39:09;15.90;99.90
12815;DHT22;6472;52.328;13.070;2023-05-23T14:41:37;15.70;99.90
12815;DHT22;6472;52.328;13.070;2023-05-23T14:44:05;15.60;99.90
12815;DHT22;6472;52.328;13.070;2023-05-23T14:46:33;15.20;99.90
12815;DHT22;6472;52.328;13.070;2023-05-23T14:49:01;15.00;99.90
12815;DHT22;6472;52.328;13.070;2023-05-23T14:51:29;14.90;99.90
12815;DHT22;6472;52.328;13.070;2023-05-23T14:54:17;14.80;99.90
12815;DHT22;6472;52.328;13.070;2023-05-23T14:56:45;14.70;99.90
12815;DHT22;6472;52.328;13.070;2023-05-23T14:59:13;14.60;99.90
12815;DHT22;6472;52.328;13.070;2023-05-23T15:01:42;14.50;99.90
12815;DHT22;6472;52.328;13.070;2023-05-23T15:04:10;14.50;99.90
12815;DHT22;6472;52.328;13.070;2023-05-23T15:06:38;14.40;99.90
12815;DHT22;6472;52.328;13.070;2023-05-23T15:09:07;14.30;99.90
12815;DHT22;6472;52.328;13.070;2023-05-23T15:11:37;14.40;99.90
12815;DHT22;6472;52.328;13.070;2023-05-23T15:14:06;14.40;99.90
12815;DHT22;6472;52.328;13.070;2023-05-23T15:16:34;14.40;99.90
12815;DHT22;6472;52.328;13.070;2023-05-23T15:19:03;14.30;99.90
12815;DHT22;6472;52.328;13.070;2023-05-23T15:21:31;14.30;99.90
12815;DHT22;6472;52.328;13.070;2023-05-23T15:23:59;14.30;99.90
12815;DHT22;6472;52.328;13.070;2023-05-23T15:26:27;14.20;99.90
12815;DHT22;6472;52.328;13.070;2023-05-23T15:28:57;14.20;99.90
12815;DHT22;6472;52.328;13.070;2023-05-23T15:31:26;14.30;99.90
12815;DHT22;6472;52.328;13.070;2023-05-23T15:33:54;14.20;99.90
12815;DHT22;6472;52.328;13.070;2023-05-23T15:36:22;14.20;99.90
12815;DHT22;6472;52.328;13.070;2023-05-23T15:38:50;14.20;99.90
12815;DHT22;6472;52.328;13.070;2023-05-23T15:41:18;14.20;99.90
12815;DHT22;6472;52.328;13.070;2023-05-23T15:43:47;14.20;99.90
12815;DHT22;6472;52.328;13.070;2023-05-23T15:46:16;14.20;99.90